sensor_id;sensor_type;location;lat;lon;timestamp;P1;durP1;ratioP1;P2;durP2;ratioP2
13816;SDS011;6979;52.116;5.286;2023-02-07T00:01:42;10.27;;;4.97;;
13816;SDS011;6979;52.116;5.286;2023-02-07T00:04:10;6.97;;;4.87;;
13816;SDS011;6979;52.116;5.286;2023-02-07T00:06:37;6.80;;;4.93;;
13816;SDS011;6979;52.116;5.286;2023-02-07T00:09:04;8.37;;;4.80;;
13816;SDS011;6979;52.116;5.286;2023-02-07T00:11:32;7.10;;;4.73;;
13816;SDS011;6979;52.116;5.286;2023-02-07T00:14:00;7.97;;;4.47;;
13816;SDS011;6979;52.116;5.286;2023-02-07T00:16:27;5.83;;;4.20;;
13816;SDS011;6979;52.116;5.286;2023-02-07T00:18:54;8.63;;;4.37;;
13816;SDS011;6979;52.116;5.286;2023-02-07T00:21:23;6.83;;;4.63;;
13816;SDS011;6979;52.116;5.286;2023-02-07T00:23:51;7.67;;;5.17;;
13816;SDS011;6979;52.116;5.286;2023-02-07T00:26:22;10.90;;;5.03;;
13816;SDS011;6979;52.116;5.286;2023-02-07T00:28:50;8.60;;;4.90;;
13816;SDS011;6979;52.116;5.286;2023-02-07T00:31:21;9.43;;;4.87;;
13816;SDS011;6979;52.116;5.286;2023-02-07T00:33:49;10.67;;;5.50;;
13816;SDS011;6979;52.116;5.286;2023-02-07T00:36:17;11.27;;;6.37;;
13816;SDS011;6979;52.116;5.286;2023-02-07T00:38:48;7.20;;;5.53;;
13816;SDS011;6979;52.116;5.286;2023-02-07T00:41:20;8.50;;;4.87;;
13816;SDS011;6979;52.116;5.286;2023-02-07T00:43:47;8.00;;;4.77;;
13816;SDS011;6979;52.116;5.286;2023-02-07T00:46:14;7.30;;;5.40;;
13816;SDS011;6979;52.116;5.286;2023-02-07T00:48:42;7.53;;;5.27;;
13816;SDS011;6979;52.116;5.286;2023-02-07T00:51:09;5.87;;;5.03;;
13816;SDS011;6979;52.116;5.286;2023-02-07T00:53:38;7.90;;;5.70;;
13816;SDS011;6979;52.116;5.286;2023-02-07T00:56:07;5.23;;;4.40;;
13816;SDS011;6979;52.116;5.286;2023-02-07T00:58:34;6.90;;;4.87;;
13816;SDS011;6979;52.116;5.286;2023-02-07T01:01:02;7.80;;;4.53;;
13816;SDS011;6979;52.116;5.286;2023-02-07T01:03:31;11.93;;;5.20;;
13816;SDS011;6979;52.116;5.286;2023-02-07T01:05:58;7.67;;;5.27;;
13816;SDS011;6979;52.116;5.286;2023-02-07T01:08:26;10.93;;;5.83;;
13816;SDS011;6979;52.116;5.286;2023-02-07T01:10:53;6.60;;;4.73;;
13816;SDS011;6979;52.116;5.286;2023-02-07T01:13:21;8.27;;;5.40;;
13816;SDS011;6979;52.116;5.286;2023-02-07T01:15:48;5.57;;;4.50;;
13816;SDS011;6979;52.116;5.286;2023-02-07T01:18:15;8.03;;;4.73;;
13816;SDS011;6979;52.116;5.286;2023-02-07T01:20:42;6.37;;;5.33;;
13816;SDS011;6979;52.116;5.286;2023-02-07T01:23:09;7.43;;;4.60;;
13816;SDS011;6979;52.116;5.286;2023-02-07T01:25:37;9.23;;;5.23;;
13816;SDS011;6979;52.116;5.286;2023-02-07T01:28:04;6.63;;;4.90;;
13816;SDS011;6979;52.116;5.286;2023-02-07T01:30:33;6.57;;;4.93;;
13816;SDS011;6979;52.116;5.286;2023-02-07T01:33:00;7.80;;;5.47;;
13816;SDS011;6979;52.116;5.286;2023-02-07T01:35:30;5.97;;;4.87;;
13816;SDS011;6979;52.116;5.286;2023-02-07T01:37:57;6.57;;;5.53;;
13816;SDS011;6979;52.116;5.286;2023-02-07T01:40:26;6.60;;;5.90;;
13816;SDS011;6979;52.116;5.286;2023-02-07T01:42:54;8.87;;;4.67;;
13816;SDS011;6979;52.116;5.286;2023-02-07T01:45:23;6.63;;;4.83;;
13816;SDS011;6979;52.116;5.286;2023-02-07T01:47:55;7.43;;;5.00;;
13816;SDS011;6979;52.116;5.286;2023-02-07T01:50:24;9.47;;;5.77;;
13816;SDS011;6979;52.116;5.286;2023-02-07T01:52:52;8.27;;;5.70;;
13816;SDS011;6979;52.116;5.286;2023-02-07T01:55:23;6.80;;;5.17;;
13816;SDS011;6979;52.116;5.286;2023-02-07T01:57:52;8.17;;;5.10;;
13816;SDS011;6979;52.116;5.286;2023-02-07T02:00:19;11.13;;;5.43;;
13816;SDS011;6979;52.116;5.286;2023-02-07T02:02:49;7.17;;;5.90;;
13816;SDS011;6979;52.116;5.286;2023-02-07T02:05:20;10.43;;;5.70;;
13816;SDS011;6979;52.116;5.286;2023-02-07T02:07:47;9.87;;;6.50;;
13816;SDS011;6979;52.116;5.286;2023-02-07T02:10:15;11.97;;;7.80;;
13816;SDS011;6979;52.116;5.286;2023-02-07T02:12:53;9.03;;;6.53;;
13816;SDS011;6979;52.116;5.286;2023-02-07T02:15:31;8.97;;;6.63;;
13816;SDS011;6979;52.116;5.286;2023-02-07T02:18:13;10.53;;;7.13;;
13816;SDS011;6979;52.116;5.286;2023-02-07T02:23:59;8.83;;;5.70;;
13816;SDS011;6979;52.116;5.286;2023-02-07T02:26:44;10.23;;;6.60;;
13816;SDS011;6979;52.116;5.286;2023-02-07T02:29:40;7.90;;;6.40;;
13816;SDS011;6979;52.116;5.286;2023-02-07T02:35:38;7.87;;;6.30;;
13816;SDS011;6979;52.116;5.286;2023-02-07T02:38:15;10.30;;;6.50;;
13816;SDS011;6979;52.116;5.286;2023-02-07T02:40:48;10.57;;;7.50;;
13816;SDS011;6979;52.116;5.286;2023-02-07T02:43:20;10.30;;;6.77;;
13816;SDS011;6979;52.116;5.286;2023-02-07T02:45:57;10.47;;;6.97;;
13816;SDS011;6979;52.116;5.286;2023-02-07T02:48:26;10.20;;;6.97;;
13816;SDS011;6979;52.116;5.286;2023-02-07T02:51:00;10.73;;;7.13;;
13816;SDS011;6979;52.116;5.286;2023-02-07T02:53:27;10.37;;;7.13;;
13816;SDS011;6979;52.116;5.286;2023-02-07T02:56:03;9.57;;;7.63;;
13816;SDS011;6979;52.116;5.286;2023-02-07T02:58:59;7.90;;;6.40;;
13816;SDS011;6979;52.116;5.286;2023-02-07T03:01:37;8.17;;;6.60;;
13816;SDS011;6979;52.116;5.286;2023-02-07T03:04:26;10.57;;;7.33;;
13816;SDS011;6979;52.116;5.286;2023-02-07T03:07:05;10.77;;;7.03;;
13816;SDS011;6979;52.116;5.286;2023-02-07T03:09:40;11.10;;;7.77;;
13816;SDS011;6979;52.116;5.286;2023-02-07T03:12:14;7.33;;;6.40;;
13816;SDS011;6979;52.116;5.286;2023-02-07T03:14:49;9.73;;;8.73;;
13816;SDS011;6979;52.116;5.286;2023-02-07T03:17:20;9.47;;;7.10;;
13816;SDS011;6979;52.116;5.286;2023-02-07T03:19:52;10.77;;;7.17;;
13816;SDS011;6979;52.116;5.286;2023-02-07T03:22:23;13.07;;;7.93;;
13816;SDS011;6979;52.116;5.286;2023-02-07T03:24:52;8.43;;;7.40;;
13816;SDS011;6979;52.116;5.286;2023-02-07T03:27:26;10.50;;;7.03;;
13816;SDS011;6979;52.116;5.286;2023-02-07T03:29:55;10.23;;;7.23;;
13816;SDS011;6979;52.116;5.286;2023-02-07T03:32:26;10.10;;;7.37;;
13816;SDS011;6979;52.116;5.286;2023-02-07T03:34:56;7.03;;;6.33;;
13816;SDS011;6979;52.116;5.286;2023-02-07T03:37:34;9.30;;;7.33;;
13816;SDS011;6979;52.116;5.286;2023-02-07T03:40:02;9.17;;;6.60;;
13816;SDS011;6979;52.116;5.286;2023-02-07T03:42:32;13.17;;;7.47;;
13816;SDS011;6979;52.116;5.286;2023-02-07T03:45:02;13.40;;;8.20;;
13816;SDS011;6979;52.116;5.286;2023-02-07T03:47:30;10.37;;;7.90;;
13816;SDS011;6979;52.116;5.286;2023-02-07T03:49:58;11.97;;;7.87;;
13816;SDS011;6979;52.116;5.286;2023-02-07T03:52:24;8.60;;;7.03;;
13816;SDS011;6979;52.116;5.286;2023-02-07T03:54:53;8.37;;;7.07;;
13816;SDS011;6979;52.116;5.286;2023-02-07T03:57:19;8.83;;;7.20;;
13816;SDS011;6979;52.116;5.286;2023-02-07T03:59:46;12.13;;;8.27;;
13816;SDS011;6979;52.116;5.286;2023-02-07T04:02:13;12.53;;;7.70;;
13816;SDS011;6979;52.116;5.286;2023-02-07T04:04:43;11.67;;;7.77;;
13816;SDS011;6979;52.116;5.286;2023-02-07T04:07:10;12.20;;;7.50;;
13816;SDS011;6979;52.116;5.286;2023-02-07T04:09:37;12.67;;;7.97;;
13816;SDS011;6979;52.116;5.286;2023-02-07T04:12:09;10.90;;;7.60;;
13816;SDS011;6979;52.116;5.286;2023-02-07T04:14:39;10.70;;;7.30;;
13816;SDS011;6979;52.116;5.286;2023-02-07T04:17:05;10.60;;;8.93;;
13816;SDS011;6979;52.116;5.286;2023-02-07T04:19:32;11.83;;;7.67;;
13816;SDS011;6979;52.116;5.286;2023-02-07T04:21:59;11.97;;;7.53;;
13816;SDS011;6979;52.116;5.286;2023-02-07T04:24:26;10.10;;;7.07;;
13816;SDS011;6979;52.116;5.286;2023-02-07T04:26:56;11.30;;;6.97;;
13816;SDS011;6979;52.116;5.286;2023-02-07T04:29:28;8.13;;;7.10;;
13816;SDS011;6979;52.116;5.286;2023-02-07T04:31:55;9.60;;;6.57;;
13816;SDS011;6979;52.116;5.286;2023-02-07T04:34:26;8.67;;;7.27;;
13816;SDS011;6979;52.116;5.286;2023-02-07T04:36:53;11.00;;;7.80;;
13816;SDS011;6979;52.116;5.286;2023-02-07T04:39:20;9.27;;;6.80;;
13816;SDS011;6979;52.116;5.286;2023-02-07T04:41:48;8.33;;;6.23;;
13816;SDS011;6979;52.116;5.286;2023-02-07T04:44:16;8.90;;;6.97;;
13816;SDS011;6979;52.116;5.286;2023-02-07T04:46:44;6.57;;;5.97;;
13816;SDS011;6979;52.116;5.286;2023-02-07T04:49:11;8.90;;;6.60;;
13816;SDS011;6979;52.116;5.286;2023-02-07T04:51:38;8.17;;;6.80;;
13816;SDS011;6979;52.116;5.286;2023-02-07T04:54:05;7.30;;;5.93;;
13816;SDS011;6979;52.116;5.286;2023-02-07T04:56:32;7.63;;;5.73;;
13816;SDS011;6979;52.116;5.286;2023-02-07T04:58:59;7.70;;;6.47;;
13816;SDS011;6979;52.116;5.286;2023-02-07T05:01:29;7.17;;;6.37;;
13816;SDS011;6979;52.116;5.286;2023-02-07T05:03:57;9.67;;;6.23;;
13816;SDS011;6979;52.116;5.286;2023-02-07T05:06:24;7.60;;;6.70;;
13816;SDS011;6979;52.116;5.286;2023-02-07T05:08:50;6.60;;;6.00;;
13816;SDS011;6979;52.116;5.286;2023-02-07T05:11:17;6.43;;;5.83;;
13816;SDS011;6979;52.116;5.286;2023-02-07T05:13:45;8.80;;;6.63;;
13816;SDS011;6979;52.116;5.286;2023-02-07T05:16:14;8.07;;;6.43;;
13816;SDS011;6979;52.116;5.286;2023-02-07T05:18:41;9.33;;;6.30;;
13816;SDS011;6979;52.116;5.286;2023-02-07T05:21:09;7.73;;;6.57;;
13816;SDS011;6979;52.116;5.286;2023-02-07T05:23:38;7.73;;;6.63;;
13816;SDS011;6979;52.116;5.286;2023-02-07T05:26:05;9.20;;;6.47;;
13816;SDS011;6979;52.116;5.286;2023-02-07T05:28:32;7.60;;;6.83;;
13816;SDS011;6979;52.116;5.286;2023-02-07T05:31:01;8.43;;;7.40;;
13816;SDS011;6979;52.116;5.286;2023-02-07T05:33:28;9.07;;;7.37;;
13816;SDS011;6979;52.116;5.286;2023-02-07T05:35:54;8.23;;;6.67;;
13816;SDS011;6979;52.116;5.286;2023-02-07T05:38:22;7.97;;;7.17;;
13816;SDS011;6979;52.116;5.286;2023-02-07T05:40:49;10.03;;;8.03;;
13816;SDS011;6979;52.116;5.286;2023-02-07T05:43:16;10.13;;;7.77;;
13816;SDS011;6979;52.116;5.286;2023-02-07T05:45:44;8.87;;;7.67;;
13816;SDS011;6979;52.116;5.286;2023-02-07T05:48:11;10.97;;;8.60;;
13816;SDS011;6979;52.116;5.286;2023-02-07T05:50:38;13.43;;;8.63;;
13816;SDS011;6979;52.116;5.286;2023-02-07T05:53:07;9.43;;;8.43;;
13816;SDS011;6979;52.116;5.286;2023-02-07T05:55:37;12.77;;;8.60;;
13816;SDS011;6979;52.116;5.286;2023-02-07T05:58:06;13.23;;;8.60;;
13816;SDS011;6979;52.116;5.286;2023-02-07T06:00:33;10.80;;;7.80;;
13816;SDS011;6979;52.116;5.286;2023-02-07T06:03:00;10.40;;;8.77;;
13816;SDS011;6979;52.116;5.286;2023-02-07T06:05:27;11.43;;;8.07;;
13816;SDS011;6979;52.116;5.286;2023-02-07T06:08:00;9.63;;;7.87;;
13816;SDS011;6979;52.116;5.286;2023-02-07T06:10:27;10.00;;;9.00;;
13816;SDS011;6979;52.116;5.286;2023-02-07T06:12:55;10.30;;;8.47;;
13816;SDS011;6979;52.116;5.286;2023-02-07T06:15:22;10.43;;;8.67;;
13816;SDS011;6979;52.116;5.286;2023-02-07T06:17:49;12.93;;;9.03;;
13816;SDS011;6979;52.116;5.286;2023-02-07T06:20:16;10.20;;;8.90;;
13816;SDS011;6979;52.116;5.286;2023-02-07T06:22:43;11.47;;;10.27;;
13816;SDS011;6979;52.116;5.286;2023-02-07T06:25:09;10.63;;;9.30;;
13816;SDS011;6979;52.116;5.286;2023-02-07T06:27:37;13.03;;;9.93;;
13816;SDS011;6979;52.116;5.286;2023-02-07T06:30:09;17.00;;;11.20;;
13816;SDS011;6979;52.116;5.286;2023-02-07T06:32:37;14.43;;;10.90;;
13816;SDS011;6979;52.116;5.286;2023-02-07T06:35:04;13.30;;;10.80;;
13816;SDS011;6979;52.116;5.286;2023-02-07T06:37:31;13.10;;;11.17;;
13816;SDS011;6979;52.116;5.286;2023-02-07T06:39:59;13.40;;;10.70;;
13816;SDS011;6979;52.116;5.286;2023-02-07T06:42:25;17.73;;;12.33;;
13816;SDS011;6979;52.116;5.286;2023-02-07T06:44:54;15.40;;;11.43;;
13816;SDS011;6979;52.116;5.286;2023-02-07T06:47:24;13.87;;;11.10;;
13816;SDS011;6979;52.116;5.286;2023-02-07T06:49:51;16.50;;;12.13;;
13816;SDS011;6979;52.116;5.286;2023-02-07T06:52:18;16.07;;;11.10;;
13816;SDS011;6979;52.116;5.286;2023-02-07T06:54:45;16.50;;;13.00;;
13816;SDS011;6979;52.116;5.286;2023-02-07T06:57:11;15.87;;;11.80;;
13816;SDS011;6979;52.116;5.286;2023-02-07T06:59:38;15.93;;;11.23;;
13816;SDS011;6979;52.116;5.286;2023-02-07T07:02:05;15.37;;;11.93;;
13816;SDS011;6979;52.116;5.286;2023-02-07T07:04:33;14.63;;;10.90;;
13816;SDS011;6979;52.116;5.286;2023-02-07T07:07:00;13.73;;;12.27;;
13816;SDS011;6979;52.116;5.286;2023-02-07T07:09:27;14.50;;;11.43;;
13816;SDS011;6979;52.116;5.286;2023-02-07T07:11:54;14.87;;;11.10;;
13816;SDS011;6979;52.116;5.286;2023-02-07T07:14:21;14.43;;;10.97;;
13816;SDS011;6979;52.116;5.286;2023-02-07T07:16:48;13.10;;;11.10;;
13816;SDS011;6979;52.116;5.286;2023-02-07T07:19:19;16.27;;;11.97;;
13816;SDS011;6979;52.116;5.286;2023-02-07T07:21:47;15.83;;;11.30;;
13816;SDS011;6979;52.116;5.286;2023-02-07T07:24:19;13.87;;;10.40;;
13816;SDS011;6979;52.116;5.286;2023-02-07T07:26:46;13.60;;;10.73;;
13816;SDS011;6979;52.116;5.286;2023-02-07T07:29:13;14.37;;;11.33;;
13816;SDS011;6979;52.116;5.286;2023-02-07T07:31:42;15.77;;;11.77;;
13816;SDS011;6979;52.116;5.286;2023-02-07T07:34:09;13.67;;;10.27;;
13816;SDS011;6979;52.116;5.286;2023-02-07T07:36:37;15.83;;;11.17;;
13816;SDS011;6979;52.116;5.286;2023-02-07T07:39:05;15.03;;;11.73;;
13816;SDS011;6979;52.116;5.286;2023-02-07T07:41:33;17.53;;;12.87;;
13816;SDS011;6979;52.116;5.286;2023-02-07T07:44:00;14.67;;;12.50;;
13816;SDS011;6979;52.116;5.286;2023-02-07T07:46:27;17.40;;;12.40;;
13816;SDS011;6979;52.116;5.286;2023-02-07T07:48:54;19.50;;;12.63;;
13816;SDS011;6979;52.116;5.286;2023-02-07T07:51:21;16.00;;;12.33;;
13816;SDS011;6979;52.116;5.286;2023-02-07T07:53:48;14.47;;;11.20;;
13816;SDS011;6979;52.116;5.286;2023-02-07T07:56:19;17.00;;;11.80;;
13816;SDS011;6979;52.116;5.286;2023-02-07T07:58:48;17.87;;;11.93;;
13816;SDS011;6979;52.116;5.286;2023-02-07T08:01:14;17.23;;;12.70;;
13816;SDS011;6979;52.116;5.286;2023-02-07T08:03:41;17.27;;;12.47;;
13816;SDS011;6979;52.116;5.286;2023-02-07T08:06:08;15.90;;;11.90;;
13816;SDS011;6979;52.116;5.286;2023-02-07T08:08:35;18.60;;;12.87;;
13816;SDS011;6979;52.116;5.286;2023-02-07T08:11:02;18.70;;;13.60;;
13816;SDS011;6979;52.116;5.286;2023-02-07T08:13:32;19.53;;;12.27;;
13816;SDS011;6979;52.116;5.286;2023-02-07T08:15:59;20.27;;;11.83;;
13816;SDS011;6979;52.116;5.286;2023-02-07T08:18:26;17.20;;;13.17;;
13816;SDS011;6979;52.116;5.286;2023-02-07T08:20:54;14.80;;;11.70;;
13816;SDS011;6979;52.116;5.286;2023-02-07T08:23:21;17.93;;;12.73;;
13816;SDS011;6979;52.116;5.286;2023-02-07T08:25:48;18.07;;;13.13;;
13816;SDS011;6979;52.116;5.286;2023-02-07T08:28:18;15.87;;;12.37;;
13816;SDS011;6979;52.116;5.286;2023-02-07T08:30:46;15.30;;;12.17;;
13816;SDS011;6979;52.116;5.286;2023-02-07T08:33:14;16.13;;;12.40;;
13816;SDS011;6979;52.116;5.286;2023-02-07T08:35:42;14.67;;;12.80;;
13816;SDS011;6979;52.116;5.286;2023-02-07T08:38:13;17.70;;;11.97;;
13816;SDS011;6979;52.116;5.286;2023-02-07T08:40:40;15.60;;;12.13;;
13816;SDS011;6979;52.116;5.286;2023-02-07T08:43:07;15.33;;;11.30;;
13816;SDS011;6979;52.116;5.286;2023-02-07T08:45:36;15.70;;;11.77;;
13816;SDS011;6979;52.116;5.286;2023-02-07T08:48:07;16.90;;;11.77;;
13816;SDS011;6979;52.116;5.286;2023-02-07T08:50:36;16.80;;;11.57;;
13816;SDS011;6979;52.116;5.286;2023-02-07T08:53:03;17.33;;;12.63;;
13816;SDS011;6979;52.116;5.286;2023-02-07T08:55:30;18.30;;;12.47;;
13816;SDS011;6979;52.116;5.286;2023-02-07T08:57:57;14.77;;;11.93;;
13816;SDS011;6979;52.116;5.286;2023-02-07T09:00:24;17.57;;;12.43;;
13816;SDS011;6979;52.116;5.286;2023-02-07T09:02:51;17.10;;;11.83;;
13816;SDS011;6979;52.116;5.286;2023-02-07T09:05:19;20.30;;;12.80;;
13816;SDS011;6979;52.116;5.286;2023-02-07T09:07:47;19.53;;;12.33;;
13816;SDS011;6979;52.116;5.286;2023-02-07T09:10:15;13.93;;;11.77;;
13816;SDS011;6979;52.116;5.286;2023-02-07T09:12:42;15.10;;;11.30;;
13816;SDS011;6979;52.116;5.286;2023-02-07T09:15:09;18.63;;;12.43;;
13816;SDS011;6979;52.116;5.286;2023-02-07T09:17:36;17.30;;;11.53;;
13816;SDS011;6979;52.116;5.286;2023-02-07T09:20:03;17.07;;;11.73;;
13816;SDS011;6979;52.116;5.286;2023-02-07T09:22:32;15.50;;;12.47;;
13816;SDS011;6979;52.116;5.286;2023-02-07T09:25:19;14.37;;;11.33;;
13816;SDS011;6979;52.116;5.286;2023-02-07T09:27:45;12.70;;;10.77;;
13816;SDS011;6979;52.116;5.286;2023-02-07T09:30:13;14.20;;;11.10;;
13816;SDS011;6979;52.116;5.286;2023-02-07T09:32:39;15.07;;;12.00;;
13816;SDS011;6979;52.116;5.286;2023-02-07T09:35:07;15.80;;;10.97;;
13816;SDS011;6979;52.116;5.286;2023-02-07T09:37:35;15.87;;;11.73;;
13816;SDS011;6979;52.116;5.286;2023-02-07T09:40:02;16.33;;;12.20;;
13816;SDS011;6979;52.116;5.286;2023-02-07T09:42:30;13.87;;;12.20;;
13816;SDS011;6979;52.116;5.286;2023-02-07T09:45:06;15.13;;;11.40;;
13816;SDS011;6979;52.116;5.286;2023-02-07T09:47:37;12.60;;;11.23;;
13816;SDS011;6979;52.116;5.286;2023-02-07T09:50:10;13.97;;;11.23;;
13816;SDS011;6979;52.116;5.286;2023-02-07T09:52:43;11.83;;;10.60;;
13816;SDS011;6979;52.116;5.286;2023-02-07T09:55:15;10.63;;;9.53;;
13816;SDS011;6979;52.116;5.286;2023-02-07T09:57:46;10.80;;;9.70;;
13816;SDS011;6979;52.116;5.286;2023-02-07T10:00:22;10.47;;;9.20;;
13816;SDS011;6979;52.116;5.286;2023-02-07T10:02:53;10.00;;;8.67;;
13816;SDS011;6979;52.116;5.286;2023-02-07T10:05:25;11.00;;;9.23;;
13816;SDS011;6979;52.116;5.286;2023-02-07T10:08:00;12.10;;;10.90;;
13816;SDS011;6979;52.116;5.286;2023-02-07T10:10:30;10.30;;;9.30;;
13816;SDS011;6979;52.116;5.286;2023-02-07T10:13:05;11.73;;;10.53;;
13816;SDS011;6979;52.116;5.286;2023-02-07T10:16:08;10.10;;;9.07;;
13816;SDS011;6979;52.116;5.286;2023-02-07T10:18:45;10.00;;;9.00;;
13816;SDS011;6979;52.116;5.286;2023-02-07T10:21:19;9.07;;;8.27;;
13816;SDS011;6979;52.116;5.286;2023-02-07T10:24:06;9.17;;;8.37;;
13816;SDS011;6979;52.116;5.286;2023-02-07T10:27:03;8.73;;;7.93;;
13816;SDS011;6979;52.116;5.286;2023-02-07T10:29:47;9.10;;;8.20;;
13816;SDS011;6979;52.116;5.286;2023-02-07T10:32:19;8.50;;;7.60;;
13816;SDS011;6979;52.116;5.286;2023-02-07T10:34:48;9.67;;;8.77;;
13816;SDS011;6979;52.116;5.286;2023-02-07T10:37:19;8.90;;;8.00;;
13816;SDS011;6979;52.116;5.286;2023-02-07T10:39:56;8.40;;;7.63;;
13816;SDS011;6979;52.116;5.286;2023-02-07T10:42:27;9.43;;;7.90;;
13816;SDS011;6979;52.116;5.286;2023-02-07T10:44:58;7.60;;;6.93;;
13816;SDS011;6979;52.116;5.286;2023-02-07T10:47:25;8.00;;;7.30;;
13816;SDS011;6979;52.116;5.286;2023-02-07T10:49:52;8.33;;;7.57;;
13816;SDS011;6979;52.116;5.286;2023-02-07T10:52:26;6.83;;;6.33;;
13816;SDS011;6979;52.116;5.286;2023-02-07T10:54:56;8.23;;;7.43;;
13816;SDS011;6979;52.116;5.286;2023-02-07T10:57:27;8.93;;;8.13;;
13816;SDS011;6979;52.116;5.286;2023-02-07T10:59:59;8.43;;;7.73;;
13816;SDS011;6979;52.116;5.286;2023-02-07T11:02:34;6.47;;;5.97;;
13816;SDS011;6979;52.116;5.286;2023-02-07T11:05:25;7.27;;;6.67;;
13816;SDS011;6979;52.116;5.286;2023-02-07T11:08:06;7.13;;;6.53;;
13816;SDS011;6979;52.116;5.286;2023-02-07T11:10:49;7.40;;;6.70;;
13816;SDS011;6979;52.116;5.286;2023-02-07T11:13:18;7.37;;;6.77;;
13816;SDS011;6979;52.116;5.286;2023-02-07T11:15:51;7.00;;;6.30;;
13816;SDS011;6979;52.116;5.286;2023-02-07T11:18:24;7.33;;;6.63;;
13816;SDS011;6979;52.116;5.286;2023-02-07T11:20:55;7.07;;;6.47;;
13816;SDS011;6979;52.116;5.286;2023-02-07T11:23:22;7.33;;;6.73;;
13816;SDS011;6979;52.116;5.286;2023-02-07T11:25:51;7.63;;;6.93;;
13816;SDS011;6979;52.116;5.286;2023-02-07T11:28:21;6.77;;;6.20;;
13816;SDS011;6979;52.116;5.286;2023-02-07T11:30:51;7.10;;;6.50;;
13816;SDS011;6979;52.116;5.286;2023-02-07T11:33:24;6.47;;;5.93;;
13816;SDS011;6979;52.116;5.286;2023-02-07T11:35:59;6.10;;;5.60;;
13816;SDS011;6979;52.116;5.286;2023-02-07T11:38:35;6.03;;;5.53;;
13816;SDS011;6979;52.116;5.286;2023-02-07T11:41:05;6.83;;;6.23;;
13816;SDS011;6979;52.116;5.286;2023-02-07T11:43:41;6.23;;;5.73;;
13816;SDS011;6979;52.116;5.286;2023-02-07T11:46:18;6.47;;;5.93;;
13816;SDS011;6979;52.116;5.286;2023-02-07T11:48:46;6.07;;;5.47;;
13816;SDS011;6979;52.116;5.286;2023-02-07T11:51:15;6.70;;;6.10;;
13816;SDS011;6979;52.116;5.286;2023-02-07T11:53:44;5.83;;;5.20;;
13816;SDS011;6979;52.116;5.286;2023-02-07T11:56:21;5.80;;;5.30;;
13816;SDS011;6979;52.116;5.286;2023-02-07T11:58:50;6.43;;;5.93;;
13816;SDS011;6979;52.116;5.286;2023-02-07T12:01:20;5.73;;;5.23;;
13816;SDS011;6979;52.116;5.286;2023-02-07T12:03:51;5.13;;;4.73;;
13816;SDS011;6979;52.116;5.286;2023-02-07T12:06:22;5.67;;;5.27;;
13816;SDS011;6979;52.116;5.286;2023-02-07T12:08:56;6.27;;;5.70;;
13816;SDS011;6979;52.116;5.286;2023-02-07T12:11:27;5.80;;;5.40;;
13816;SDS011;6979;52.116;5.286;2023-02-07T12:14:02;5.90;;;5.40;;
13816;SDS011;6979;52.116;5.286;2023-02-07T12:16:35;6.30;;;5.73;;
13816;SDS011;6979;52.116;5.286;2023-02-07T12:19:09;5.43;;;5.00;;
13816;SDS011;6979;52.116;5.286;2023-02-07T12:21:40;5.73;;;5.33;;
13816;SDS011;6979;52.116;5.286;2023-02-07T12:24:19;5.70;;;5.20;;
13816;SDS011;6979;52.116;5.286;2023-02-07T12:26:53;6.13;;;5.63;;
13816;SDS011;6979;52.116;5.286;2023-02-07T12:29:25;6.23;;;5.73;;
13816;SDS011;6979;52.116;5.286;2023-02-07T12:32:02;6.00;;;5.50;;
13816;SDS011;6979;52.116;5.286;2023-02-07T12:34:40;5.43;;;5.03;;
13816;SDS011;6979;52.116;5.286;2023-02-07T12:37:16;5.57;;;5.17;;
13816;SDS011;6979;52.116;5.286;2023-02-07T12:39:47;5.00;;;4.60;;
13816;SDS011;6979;52.116;5.286;2023-02-07T12:42:26;5.37;;;4.80;;
13816;SDS011;6979;52.116;5.286;2023-02-07T12:44:58;5.63;;;5.13;;
13816;SDS011;6979;52.116;5.286;2023-02-07T12:47:32;5.70;;;5.30;;
13816;SDS011;6979;52.116;5.286;2023-02-07T12:50:14;5.80;;;5.23;;
13816;SDS011;6979;52.116;5.286;2023-02-07T12:52:56;5.13;;;4.73;;
13816;SDS011;6979;52.116;5.286;2023-02-07T12:55:37;5.77;;;5.27;;
13816;SDS011;6979;52.116;5.286;2023-02-07T12:58:22;5.40;;;4.90;;
13816;SDS011;6979;52.116;5.286;2023-02-07T13:00:57;5.10;;;4.70;;
13816;SDS011;6979;52.116;5.286;2023-02-07T13:03:35;5.77;;;5.27;;
13816;SDS011;6979;52.116;5.286;2023-02-07T13:06:16;4.90;;;4.50;;
13816;SDS011;6979;52.116;5.286;2023-02-07T13:08:51;3.83;;;3.53;;
13816;SDS011;6979;52.116;5.286;2023-02-07T13:11:28;3.90;;;3.60;;
13816;SDS011;6979;52.116;5.286;2023-02-07T13:14:08;4.93;;;4.53;;
13816;SDS011;6979;52.116;5.286;2023-02-07T13:16:49;3.80;;;3.50;;
13816;SDS011;6979;52.116;5.286;2023-02-07T13:19:24;4.43;;;4.03;;
13816;SDS011;6979;52.116;5.286;2023-02-07T13:21:57;3.73;;;3.47;;
13816;SDS011;6979;52.116;5.286;2023-02-07T13:24:31;3.33;;;3.13;;
13816;SDS011;6979;52.116;5.286;2023-02-07T13:27:04;4.00;;;3.70;;
13816;SDS011;6979;52.116;5.286;2023-02-07T13:29:39;4.00;;;3.70;;
13816;SDS011;6979;52.116;5.286;2023-02-07T13:32:07;3.67;;;3.37;;
13816;SDS011;6979;52.116;5.286;2023-02-07T13:34:41;3.43;;;3.23;;
13816;SDS011;6979;52.116;5.286;2023-02-07T13:37:13;4.13;;;3.83;;
13816;SDS011;6979;52.116;5.286;2023-02-07T13:39:47;4.50;;;4.17;;
13816;SDS011;6979;52.116;5.286;2023-02-07T13:42:22;4.27;;;3.97;;
13816;SDS011;6979;52.116;5.286;2023-02-07T13:44:58;3.90;;;3.57;;
13816;SDS011;6979;52.116;5.286;2023-02-07T13:50:38;3.73;;;3.43;;
13816;SDS011;6979;52.116;5.286;2023-02-07T13:53:21;4.13;;;3.83;;
13816;SDS011;6979;52.116;5.286;2023-02-07T13:55:54;3.67;;;3.47;;
13816;SDS011;6979;52.116;5.286;2023-02-07T14:01:37;3.93;;;3.30;;
13816;SDS011;6979;52.116;5.286;2023-02-07T14:04:14;3.97;;;3.67;;
13816;SDS011;6979;52.116;5.286;2023-02-07T14:06:54;3.70;;;3.40;;
13816;SDS011;6979;52.116;5.286;2023-02-07T14:09:27;4.37;;;3.97;;
13816;SDS011;6979;52.116;5.286;2023-02-07T14:12:00;3.70;;;3.50;;
13816;SDS011;6979;52.116;5.286;2023-02-07T14:14:29;3.73;;;3.53;;
13816;SDS011;6979;52.116;5.286;2023-02-07T14:16:59;4.03;;;3.73;;
13816;SDS011;6979;52.116;5.286;2023-02-07T14:19:46;3.80;;;3.60;;
13816;SDS011;6979;52.116;5.286;2023-02-07T14:22:21;3.27;;;3.07;;
13816;SDS011;6979;52.116;5.286;2023-02-07T14:30:34;4.30;;;4.00;;
13816;SDS011;6979;52.116;5.286;2023-02-07T14:33:08;4.37;;;4.07;;
13816;SDS011;6979;52.116;5.286;2023-02-07T14:35:37;4.10;;;3.80;;
13816;SDS011;6979;52.116;5.286;2023-02-07T14:38:25;4.53;;;3.60;;
13816;SDS011;6979;52.116;5.286;2023-02-07T14:41:00;4.10;;;3.80;;
13816;SDS011;6979;52.116;5.286;2023-02-07T14:43:34;4.20;;;3.90;;
13816;SDS011;6979;52.116;5.286;2023-02-07T14:46:10;4.70;;;4.30;;
13816;SDS011;6979;52.116;5.286;2023-02-07T14:48:45;3.93;;;3.73;;
13816;SDS011;6979;52.116;5.286;2023-02-07T14:51:18;4.60;;;4.27;;
13816;SDS011;6979;52.116;5.286;2023-02-07T14:53:53;4.73;;;4.33;;
13816;SDS011;6979;52.116;5.286;2023-02-07T14:56:28;4.27;;;3.97;;
13816;SDS011;6979;52.116;5.286;2023-02-07T14:59:03;4.67;;;4.37;;
13816;SDS011;6979;52.116;5.286;2023-02-07T15:01:31;4.67;;;4.37;;
13816;SDS011;6979;52.116;5.286;2023-02-07T15:04:00;7.00;;;6.40;;
13816;SDS011;6979;52.116;5.286;2023-02-07T15:06:28;6.50;;;5.83;;
13816;SDS011;6979;52.116;5.286;2023-02-07T15:09:00;5.80;;;5.37;;
13816;SDS011;6979;52.116;5.286;2023-02-07T15:11:28;5.13;;;4.60;;
13816;SDS011;6979;52.116;5.286;2023-02-07T15:13:56;5.10;;;4.70;;
13816;SDS011;6979;52.116;5.286;2023-02-07T15:16:27;5.20;;;4.80;;
13816;SDS011;6979;52.116;5.286;2023-02-07T15:18:56;5.30;;;4.80;;
13816;SDS011;6979;52.116;5.286;2023-02-07T15:21:27;6.13;;;5.73;;
13816;SDS011;6979;52.116;5.286;2023-02-07T15:24:00;6.23;;;5.63;;
13816;SDS011;6979;52.116;5.286;2023-02-07T15:26:30;5.23;;;4.83;;
13816;SDS011;6979;52.116;5.286;2023-02-07T15:29:02;5.57;;;5.17;;
13816;SDS011;6979;52.116;5.286;2023-02-07T15:31:43;6.00;;;5.40;;
13816;SDS011;6979;52.116;5.286;2023-02-07T15:34:14;6.90;;;6.30;;